Time;durP1;ratioP1;P1;durP2;ratioP2;P2;SDS_P1;SDS_P2;PMS_P1;PMS_P2;Temp;Humidity;BMP_temperature;BMP_pressure;BME280_temperature;BME280_humidity;BME280_pressure;Samples;Min_cycle;Max_cycle;Signal;HPM_P1;HPM_P2
2023/07/23 00:01:21;;;;;;;85.78;53.72;;;19.20;76.90;;;;;;5006797;27;86967;-75
2023/07/23 00:03:46;;;;;;;85.13;53.72;;;19.30;76.30;;;;;;5015703;27;84970;-75
2023/07/23 00:06:12;;;;;;;86.93;54.42;;;19.20;76.70;;;;;;5010867;27;85978;-76
2023/07/23 00:08:38;;;;;;;86.22;53.85;;;19.20;77.30;;;;;;5009596;27;88070;-75
2023/07/23 00:11:03;;;;;;;85.57;53.70;;;19.20;77.20;;;;;;5006949;27;85803;-75
2023/07/23 00:13:29;;;;;;;85.35;54.03;;;19.20;77.00;;;;;;5006745;27;86416;-75
2023/07/23 00:15:54;;;;;;;85.55;53.65;;;19.20;77.70;;;;;;5012162;27;85619;-74
2023/07/23 00:18:20;;;;;;;85.18;53.63;;;19.20;77.80;;;;;;5008084;27;85867;-73
2023/07/23 00:20:46;;;;;;;86.43;53.67;;;19.20;78.20;;;;;;5006899;27;85881;-75
2023/07/23 00:23:12;;;;;;;85.60;53.90;;;19.20;76.40;;;;;;4996806;28;85639;-74
2023/07/23 00:25:37;;;;;;;86.15;53.78;;;19.20;77.40;;;;;;5009494;27;85840;-74
2023/07/23 00:28:03;;;;;;;86.38;53.70;;;19.20;76.40;;;;;;4991374;27;85797;-75
2023/07/23 00:30:29;;;;;;;85.30;53.85;;;19.20;76.30;;;;;;5011038;27;86746;-73
2023/07/23 00:32:54;;;;;;;86.68;53.85;;;19.20;76.60;;;;;;4997547;27;86344;-74
2023/07/23 00:35:20;;;;;;;86.88;53.83;;;19.20;78.30;;;;;;5005381;27;85654;-73
2023/07/23 00:37:46;;;;;;;86.45;53.83;;;19.20;77.90;;;;;;5010991;27;86300;-74
2023/07/23 00:40:11;;;;;;;85.70;53.67;;;19.20;76.60;;;;;;5007232;27;87488;-74
2023/07/23 00:42:37;;;;;;;86.18;53.88;;;19.20;76.40;;;;;;5012964;27;91112;-73
2023/07/23 00:45:03;;;;;;;87.32;53.65;;;19.20;77.20;;;;;;5007803;27;86069;-72
2023/07/23 00:47:29;;;;;;;87.70;53.85;;;19.20;76.90;;;;;;5010727;27;87727;-75
2023/07/23 00:49:55;;;;;;;87.43;53.85;;;19.20;76.50;;;;;;5015998;28;87025;-75
2023/07/23 00:52:21;;;;;;;87.55;53.90;;;19.30;76.50;;;;;;4994414;27;86726;-73
2023/07/23 00:54:46;;;;;;;85.18;53.55;;;19.20;76.40;;;;;;5006361;27;85751;-73
2023/07/23 00:57:13;;;;;;;85.93;53.60;;;19.20;76.70;;;;;;5011484;27;91953;-74
2023/07/23 00:59:39;;;;;;;85.95;54.42;;;19.20;76.00;;;;;;5009863;27;85752;-74
2023/07/23 01:02:05;;;;;;;85.05;53.60;;;19.20;76.50;;;;;;4990190;28;89587;-73
2023/07/23 01:04:32;;;;;;;87.72;54.15;;;19.20;77.20;;;;;;4990925;28;87985;-74
2023/07/23 01:07:01;;;;;;;86.72;53.92;;;19.20;76.10;;;;;;5010459;27;85646;-74
2023/07/23 01:09:27;;;;;;;85.28;53.58;;;19.20;77.30;;;;;;5005970;27;87881;-73
2023/07/23 01:11:54;;;;;;;85.70;53.72;;;19.20;76.40;;;;;;5006678;27;85639;-72
2023/07/23 01:14:20;;;;;;;85.03;53.75;;;19.30;77.00;;;;;;5002884;27;86559;-73
2023/07/23 01:16:46;;;;;;;86.10;53.83;;;19.20;76.00;;;;;;5005023;27;86390;-73
2023/07/23 01:19:15;;;;;;;85.10;53.45;;;19.20;76.30;;;;;;4991161;27;84669;-71
2023/07/23 01:21:40;;;;;;;85.72;53.92;;;19.20;75.90;;;;;;5008609;27;88725;-72
2023/07/23 01:24:06;;;;;;;85.68;53.70;;;19.20;77.10;;;;;;5008506;27;85131;-74
2023/07/23 01:26:32;;;;;;;86.57;53.65;;;19.20;76.20;;;;;;5009323;27;84880;-72
2023/07/23 01:28:57;;;;;;;87.18;53.90;;;19.20;76.50;;;;;;5001868;27;85425;-74
2023/07/23 01:31:23;;;;;;;85.90;53.70;;;19.20;76.20;;;;;;4987961;27;87542;-72
2023/07/23 01:33:50;;;;;;;84.57;53.28;;;19.20;75.80;;;;;;5003356;27;86471;-72
2023/07/23 01:36:16;;;;;;;86.38;53.72;;;19.20;76.20;;;;;;4995060;28;86769;-74
2023/07/23 01:38:42;;;;;;;86.13;53.72;;;19.20;76.80;;;;;;5006862;27;89845;-74
2023/07/23 01:41:08;;;;;;;86.03;53.58;;;19.20;76.80;;;;;;5000101;27;85988;-73
2023/07/23 01:43:34;;;;;;;85.65;53.65;;;19.20;76.20;;;;;;5003710;27;86040;-74
2023/07/23 01:46:00;;;;;;;85.13;53.58;;;19.10;76.80;;;;;;4989753;28;86909;-73
2023/07/23 01:48:25;;;;;;;84.93;53.65;;;19.10;76.60;;;;;;5006275;27;85189;-74
2023/07/23 01:50:51;;;;;;;84.63;53.58;;;19.10;77.60;;;;;;5007004;27;85772;-74
2023/07/23 01:53:16;;;;;;;84.93;53.72;;;19.10;76.90;;;;;;5005069;27;89107;-73
2023/07/23 01:55:42;;;;;;;85.30;53.80;;;19.10;77.40;;;;;;5007577;27;87684;-74
2023/07/23 01:58:08;;;;;;;85.25;53.53;;;19.10;76.40;;;;;;5002854;27;88712;-74
2023/07/23 02:00:33;;;;;;;85.40;54.08;;;19.10;75.90;;;;;;5005886;27;85243;-71
2023/07/23 02:02:59;;;;;;;84.95;53.70;;;19.10;76.70;;;;;;4990032;28;85802;-73
2023/07/23 02:05:25;;;;;;;84.53;53.63;;;19.10;77.40;;;;;;5007012;27;86334;-73
2023/07/23 02:07:51;;;;;;;86.05;53.75;;;19.10;77.40;;;;;;4992125;27;85601;-72
2023/07/23 02:10:20;;;;;;;84.07;53.10;;;19.10;76.80;;;;;;5001434;27;85991;-73
2023/07/23 02:12:46;;;;;;;84.25;53.45;;;19.10;77.10;;;;;;5008192;27;85469;-73
2023/07/23 02:15:12;;;;;;;84.82;53.45;;;19.10;76.00;;;;;;4985885;27;87277;-73
2023/07/23 02:17:38;;;;;;;85.47;53.72;;;19.10;76.00;;;;;;5003506;27;85192;-74
2023/07/23 02:20:05;;;;;;;87.45;53.67;;;19.10;76.50;;;;;;5006698;27;86993;-73
2023/07/23 02:22:31;;;;;;;85.57;53.67;;;19.10;76.50;;;;;;4994630;28;86226;-74
2023/07/23 02:24:57;;;;;;;84.68;53.65;;;19.10;77.00;;;;;;5003827;27;85757;-73
2023/07/23 02:27:23;;;;;;;85.95;53.70;;;19.10;76.00;;;;;;5009217;27;88167;-74
2023/07/23 02:29:48;;;;;;;85.32;53.70;;;19.10;77.20;;;;;;5004048;27;87921;-75
2023/07/23 02:32:14;;;;;;;84.85;53.67;;;19.10;76.30;;;;;;5005467;27;85186;-75
2023/07/23 02:34:39;;;;;;;85.45;53.30;;;19.10;76.20;;;;;;5010432;27;84996;-75
2023/07/23 02:37:05;;;;;;;85.55;53.88;;;19.10;76.80;;;;;;5007693;27;84753;-72
2023/07/23 02:39:31;;;;;;;85.35;53.50;;;19.10;76.20;;;;;;5007943;27;88233;-75
2023/07/23 02:41:57;;;;;;;84.72;53.45;;;19.10;76.20;;;;;;4998119;27;86717;-74
2023/07/23 02:44:22;;;;;;;85.32;53.55;;;19.10;76.00;;;;;;4993027;28;86235;-73
2023/07/23 02:46:48;;;;;;;84.03;53.08;;;19.10;75.50;;;;;;5008515;27;84677;-74
2023/07/23 02:49:14;;;;;;;85.45;53.85;;;19.10;77.20;;;;;;4996896;27;85933;-72
2023/07/23 02:51:40;;;;;;;84.38;53.30;;;19.10;76.60;;;;;;4993413;28;89082;-72
2023/07/23 02:54:05;;;;;;;86.82;53.88;;;19.10;76.70;;;;;;4992754;28;89226;-72
2023/07/23 02:56:31;;;;;;;84.63;53.45;;;19.10;76.10;;;;;;5008053;27;86444;-74
2023/07/23 02:58:56;;;;;;;84.93;53.60;;;19.10;75.70;;;;;;5006366;27;86058;-74
2023/07/23 03:01:22;;;;;;;85.15;53.45;;;19.10;75.70;;;;;;5003017;27;86798;-72
2023/07/23 03:03:48;;;;;;;84.78;53.50;;;19.10;76.00;;;;;;5013146;27;84853;-73
2023/07/23 03:06:14;;;;;;;84.85;53.45;;;19.10;75.80;;;;;;5002410;27;85957;-74
2023/07/23 03:08:40;;;;;;;84.97;53.45;;;19.10;75.60;;;;;;5004949;27;86673;-73
2023/07/23 03:11:06;;;;;;;84.75;53.50;;;19.10;76.50;;;;;;5007844;27;87870;-73
2023/07/23 03:13:32;;;;;;;85.72;53.50;;;19.10;75.40;;;;;;4990054;27;86657;-73
2023/07/23 03:15:58;;;;;;;86.30;53.67;;;19.10;75.90;;;;;;5010270;27;85084;-74
2023/07/23 03:18:24;;;;;;;84.25;53.58;;;19.10;75.60;;;;;;5008630;27;85404;-75
2023/07/23 03:20:49;;;;;;;84.97;53.33;;;19.10;76.10;;;;;;5006224;27;88546;-73
2023/07/23 03:23:16;;;;;;;85.50;53.55;;;19.10;76.20;;;;;;5006990;27;85677;-74
2023/07/23 03:25:41;;;;;;;84.75;53.65;;;19.10;75.90;;;;;;5005104;27;86482;-75
2023/07/23 03:28:07;;;;;;;84.88;53.42;;;19.10;75.90;;;;;;5006284;27;85291;-74
2023/07/23 03:30:32;;;;;;;84.65;53.47;;;19.10;75.80;;;;;;4989614;28;86686;-75
2023/07/23 03:32:58;;;;;;;85.05;53.80;;;19.10;75.60;;;;;;5011578;27;85865;-74
2023/07/23 03:35:24;;;;;;;85.47;53.55;;;19.10;76.20;;;;;;5012726;27;86216;-74
2023/07/23 03:37:49;;;;;;;86.70;53.75;;;19.10;75.40;;;;;;5006451;27;85094;-71
2023/07/23 03:40:15;;;;;;;85.10;53.60;;;19.10;76.50;;;;;;5007064;27;85199;-75
2023/07/23 03:42:41;;;;;;;86.03;53.97;;;19.10;75.80;;;;;;4997065;28;86428;-74
2023/07/23 03:45:07;;;;;;;84.20;53.45;;;19.10;75.10;;;;;;5006451;27;85798;-74
2023/07/23 03:47:32;;;;;;;85.65;53.65;;;19.10;75.90;;;;;;5004939;27;85119;-73
2023/07/23 03:49:59;;;;;;;85.00;53.95;;;19.20;75.80;;;;;;5005057;27;89782;-75
2023/07/23 03:52:24;;;;;;;84.55;53.30;;;19.10;75.30;;;;;;5009267;27;88463;-74
2023/07/23 03:54:50;;;;;;;85.00;53.33;;;19.10;76.00;;;;;;5009698;28;87741;-74
2023/07/23 03:57:15;;;;;;;85.70;53.40;;;19.10;75.60;;;;;;5009599;27;88274;-72
2023/07/23 03:59:43;;;;;;;84.88;53.65;;;19.10;75.30;;;;;;5010076;27;87591;-74
2023/07/23 04:02:09;;;;;;;84.80;53.65;;;19.10;75.60;;;;;;5009055;27;86080;-74
2023/07/23 04:04:36;;;;;;;84.72;53.83;;;19.10;75.10;;;;;;5006362;28;85331;-74
2023/07/23 04:07:02;;;;;;;84.82;53.85;;;19.10;75.80;;;;;;5007667;27;84992;-74
2023/07/23 04:09:28;;;;;;;84.63;53.60;;;19.10;74.90;;;;;;5008436;27;85670;-74
2023/07/23 04:11:54;;;;;;;86.03;53.90;;;19.10;75.00;;;;;;5011528;27;85927;-74
2023/07/23 04:14:20;;;;;;;85.82;53.90;;;19.10;76.00;;;;;;4990532;28;85557;-74
2023/07/23 04:16:47;;;;;;;84.35;53.30;;;19.10;75.30;;;;;;5002909;27;84805;-74
2023/07/23 04:19:12;;;;;;;84.82;53.80;;;19.10;76.20;;;;;;5005423;27;85489;-73
2023/07/23 04:21:39;;;;;;;85.57;53.80;;;19.10;75.70;;;;;;5002441;27;87284;-74
2023/07/23 04:24:04;;;;;;;84.35;53.72;;;19.10;75.60;;;;;;5002913;27;85559;-74
2023/07/23 04:26:30;;;;;;;85.22;53.83;;;19.10;75.60;;;;;;4992813;28;87332;-72
2023/07/23 04:28:56;;;;;;;85.63;53.67;;;19.10;75.30;;;;;;5000853;27;87717;-74
2023/07/23 04:31:22;;;;;;;85.53;53.92;;;19.10;75.70;;;;;;4993197;27;86510;-74
2023/07/23 04:33:48;;;;;;;85.97;53.83;;;19.10;75.90;;;;;;5006932;27;88000;-73
2023/07/23 04:36:14;;;;;;;85.72;53.85;;;19.10;75.30;;;;;;5002749;27;86540;-73
2023/07/23 04:38:41;;;;;;;85.35;53.58;;;19.10;75.00;;;;;;4991320;28;85946;-74
2023/07/23 04:41:07;;;;;;;84.35;53.20;;;19.10;75.80;;;;;;5009957;27;85305;-75
2023/07/23 04:43:35;;;;;;;84.68;53.42;;;19.20;75.10;;;;;;4990879;27;88315;-73
2023/07/23 04:46:01;;;;;;;85.55;54.00;;;19.10;76.50;;;;;;5010468;27;85028;-72
2023/07/23 04:48:27;;;;;;;87.22;53.83;;;19.10;75.80;;;;;;5012971;27;86157;-72
2023/07/23 04:51:01;;;;;;;85.32;53.92;;;19.20;75.10;;;;;;5009346;27;89126;-73
2023/07/23 04:53:27;;;;;;;84.70;53.55;;;19.10;75.00;;;;;;5003207;27;85577;-72
2023/07/23 04:55:53;;;;;;;84.88;54.03;;;19.10;76.20;;;;;;5004684;27;85640;-74
2023/07/23 04:58:20;;;;;;;84.40;53.58;;;19.20;75.70;;;;;;5005840;27;85018;-73
2023/07/23 05:00:46;;;;;;;84.72;53.72;;;19.10;75.40;;;;;;5005297;27;87538;-74
2023/07/23 05:03:11;;;;;;;85.05;53.88;;;19.20;76.20;;;;;;4989758;28;85632;-73
2023/07/23 05:05:43;;;;;;;85.63;53.72;;;19.20;74.60;;;;;;5007392;27;85382;-72
2023/07/23 05:08:09;;;;;;;84.88;53.88;;;19.20;75.70;;;;;;5009088;27;85634;-74
2023/07/23 05:10:34;;;;;;;85.30;53.85;;;19.20;75.20;;;;;;5002584;27;86866;-74
2023/07/23 05:13:00;;;;;;;85.45;53.90;;;19.20;75.70;;;;;;5006688;27;85323;-74
2023/07/23 05:15:26;;;;;;;85.10;53.90;;;19.20;74.80;;;;;;5005398;27;86680;-75
2023/07/23 05:17:52;;;;;;;85.78;54.50;;;19.10;75.60;;;;;;5005833;27;86753;-73
2023/07/23 05:20:18;;;;;;;86.13;53.90;;;19.20;74.80;;;;;;4992122;28;87425;-74
2023/07/23 05:22:43;;;;;;;86.10;53.97;;;19.10;75.10;;;;;;4988881;27;88550;-73
2023/07/23 05:25:09;;;;;;;85.10;53.97;;;19.10;75.40;;;;;;5006034;27;86661;-74
2023/07/23 05:27:35;;;;;;;85.90;54.03;;;19.10;75.00;;;;;;5004207;27;85670;-73
2023/07/23 05:30:01;;;;;;;85.28;54.05;;;19.10;74.80;;;;;;5005265;27;85198;-73
2023/07/23 05:32:27;;;;;;;85.90;54.35;;;19.10;75.40;;;;;;5006826;27;88421;-70
2023/07/23 05:34:55;;;;;;;86.07;54.33;;;19.10;74.80;;;;;;5025778;27;86706;-74
2023/07/23 05:37:21;;;;;;;86.05;54.33;;;19.10;74.60;;;;;;5005986;27;85730;-71
2023/07/23 05:39:48;;;;;;;85.75;54.03;;;19.10;74.70;;;;;;5002622;27;86472;-73
2023/07/23 05:42:13;;;;;;;85.15;53.85;;;19.10;75.40;;;;;;5007677;27;84978;-73
2023/07/23 05:44:39;;;;;;;86.22;54.42;;;19.10;75.10;;;;;;5004161;27;85605;-74
2023/07/23 05:47:05;;;;;;;85.65;54.17;;;19.10;75.30;;;;;;5009574;27;85641;-74
2023/07/23 05:49:30;;;;;;;85.57;54.30;;;19.10;76.00;;;;;;5008655;27;85600;-72
2023/07/23 05:51:58;;;;;;;84.72;53.85;;;19.10;75.10;;;;;;4993730;27;87059;-73
2023/07/23 05:54:24;;;;;;;84.97;53.92;;;19.10;75.20;;;;;;5006992;27;86845;-72
2023/07/23 05:56:50;;;;;;;86.15;54.22;;;19.10;75.90;;;;;;5004368;27;86114;-72
2023/07/23 05:59:16;;;;;;;85.88;54.38;;;19.10;76.40;;;;;;5005791;27;85588;-74
2023/07/23 06:01:42;;;;;;;85.10;53.85;;;19.10;75.30;;;;;;4986995;27;88531;-72
2023/07/23 06:04:07;;;;;;;85.22;54.20;;;19.10;76.10;;;;;;5011767;27;85349;-71
2023/07/23 06:06:33;;;;;;;85.53;54.10;;;19.10;77.00;;;;;;5002301;27;85605;-74
2023/07/23 06:08:59;;;;;;;86.55;54.35;;;19.10;75.40;;;;;;4990197;27;88562;-73
2023/07/23 06:11:24;;;;;;;87.57;54.58;;;19.10;75.10;;;;;;4985169;28;85297;-72
2023/07/23 06:13:50;;;;;;;85.72;54.10;;;19.10;75.30;;;;;;5000164;27;85184;-73
2023/07/23 06:16:16;;;;;;;85.53;54.15;;;19.10;76.00;;;;;;5007270;27;85856;-71
2023/07/23 06:18:41;;;;;;;86.75;54.55;;;19.10;75.70;;;;;;5005519;27;85986;-71
2023/07/23 06:21:07;;;;;;;85.97;54.22;;;19.10;75.80;;;;;;5003135;27;86521;-73
2023/07/23 06:23:34;;;;;;;85.57;54.40;;;19.10;75.20;;;;;;4999413;27;86409;-73
2023/07/23 06:25:59;;;;;;;86.32;54.55;;;19.10;74.90;;;;;;5002092;27;86860;-73
2023/07/23 06:28:25;;;;;;;86.72;53.92;;;19.10;76.00;;;;;;5004710;27;87011;-74
2023/07/23 06:30:54;;;;;;;85.53;54.40;;;19.10;75.20;;;;;;4989834;27;85459;-73
2023/07/23 06:33:20;;;;;;;85.88;54.50;;;19.10;75.90;;;;;;5002178;27;87624;-73
2023/07/23 06:35:47;;;;;;;86.00;54.03;;;19.10;74.80;;;;;;4990509;27;88514;-73
2023/07/23 06:38:13;;;;;;;85.93;54.55;;;19.10;75.60;;;;;;5007849;27;88831;-72
2023/07/23 06:41:05;;;;;;;85.80;54.13;;;19.10;75.40;;;;;;5002833;27;85631;-73
2023/07/23 06:43:30;;;;;;;85.50;53.90;;;19.10;75.20;;;;;;4984566;28;85967;-73
2023/07/23 06:45:56;;;;;;;85.88;54.40;;;19.10;76.20;;;;;;5002836;27;85144;-74
2023/07/23 06:48:27;;;;;;;86.80;54.60;;;19.10;76.10;;;;;;5001776;27;88922;-74
2023/07/23 06:50:53;;;;;;;86.93;54.55;;;19.10;76.50;;;;;;4992731;28;86950;-74
2023/07/23 06:53:19;;;;;;;86.85;54.67;;;19.10;75.00;;;;;;5004219;27;84878;-74
2023/07/23 06:56:05;;;;;;;85.93;54.10;;;19.10;76.30;;;;;;4986845;28;86865;-73
2023/07/23 06:58:33;;;;;;;86.55;54.22;;;19.10;76.20;;;;;;5005407;27;86567;-72
2023/07/23 07:00:58;;;;;;;86.32;54.47;;;19.10;76.30;;;;;;4994298;28;85064;-73
2023/07/23 07:03:24;;;;;;;85.90;54.42;;;19.10;76.30;;;;;;5001112;27;85735;-72
2023/07/23 07:05:50;;;;;;;86.80;54.55;;;19.10;75.30;;;;;;5001602;27;86537;-74
2023/07/23 07:08:16;;;;;;;85.88;54.53;;;19.10;75.50;;;;;;5001545;27;86747;-73
2023/07/23 07:10:42;;;;;;;86.20;54.50;;;19.10;76.10;;;;;;5006792;27;87567;-73
2023/07/23 07:13:07;;;;;;;86.07;54.47;;;19.10;75.40;;;;;;5004301;27;87224;-73
2023/07/23 07:15:33;;;;;;;85.35;54.35;;;19.10;76.40;;;;;;4987210;28;87732;-72
2023/07/23 07:17:58;;;;;;;85.88;54.45;;;19.10;75.70;;;;;;5008280;27;85386;-74
2023/07/23 07:20:24;;;;;;;86.25;54.30;;;19.20;76.80;;;;;;5005115;27;86466;-74
2023/07/23 07:22:49;;;;;;;85.80;54.47;;;19.20;75.20;;;;;;5005594;27;85749;-73
2023/07/23 07:25:15;;;;;;;86.53;54.50;;;19.10;75.60;;;;;;4991780;28;87728;-73
2023/07/23 07:27:40;;;;;;;86.97;54.55;;;19.20;75.50;;;;;;5003216;27;85563;-73
2023/07/23 07:30:07;;;;;;;86.72;54.78;;;19.20;75.00;;;;;;5002598;27;85093;-72
2023/07/23 07:32:32;;;;;;;85.65;54.35;;;19.20;75.90;;;;;;4997405;27;86584;-74
2023/07/23 07:34:58;;;;;;;88.13;54.63;;;19.20;76.00;;;;;;5001856;27;85777;-72
2023/07/23 07:37:24;;;;;;;86.15;54.28;;;19.30;75.80;;;;;;4988761;27;88777;-73
2023/07/23 07:39:50;;;;;;;85.82;54.63;;;19.30;75.90;;;;;;5016079;27;87731;-73
2023/07/23 07:42:15;;;;;;;85.70;54.55;;;19.30;76.20;;;;;;4999941;27;86411;-72
2023/07/23 07:44:42;;;;;;;86.22;54.55;;;19.30;74.70;;;;;;5002507;27;85353;-72
2023/07/23 07:47:07;;;;;;;86.45;54.47;;;19.30;75.60;;;;;;5005884;27;85578;-73
2023/07/23 07:49:33;;;;;;;86.68;54.55;;;19.30;75.60;;;;;;5011264;27;85801;-73
2023/07/23 07:51:59;;;;;;;85.75;54.33;;;19.30;75.20;;;;;;5005055;27;87589;-73
2023/07/23 07:54:25;;;;;;;87.03;54.75;;;19.30;75.50;;;;;;5003019;27;86125;-73
2023/07/23 07:56:51;;;;;;;86.68;54.70;;;19.30;75.50;;;;;;5008738;27;86763;-72
2023/07/23 07:59:17;;;;;;;86.25;54.72;;;19.40;75.00;;;;;;5000089;27;85281;-72
2023/07/23 08:01:42;;;;;;;86.03;54.38;;;19.40;76.50;;;;;;5008389;27;86554;-73
2023/07/23 08:04:10;;;;;;;86.65;54.72;;;19.40;74.80;;;;;;5000099;28;88016;-71
2023/07/23 08:06:38;;;;;;;86.60;54.72;;;19.50;75.70;;;;;;5002835;27;86473;-72
2023/07/23 08:09:04;;;;;;;87.82;54.83;;;19.50;75.80;;;;;;4999400;27;89381;-72
2023/07/23 08:11:30;;;;;;;88.30;55.05;;;19.50;74.70;;;;;;5001973;27;86984;-74
2023/07/23 08:13:57;;;;;;;87.53;55.10;;;19.60;75.40;;;;;;5002246;27;85983;-73
2023/07/23 08:16:23;;;;;;;87.78;54.80;;;19.70;74.80;;;;;;5005131;27;86009;-74
2023/07/23 08:18:49;;;;;;;88.68;55.00;;;19.70;74.90;;;;;;5005759;27;87314;-71
2023/07/23 08:21:15;;;;;;;88.63;55.15;;;19.80;73.50;;;;;;5001065;27;87461;-74
2023/07/23 08:23:40;;;;;;;87.22;54.95;;;19.90;74.30;;;;;;5011554;28;87412;-74
2023/07/23 08:26:07;;;;;;;88.72;55.03;;;20.00;73.10;;;;;;5009643;28;85269;-73
2023/07/23 08:28:37;;;;;;;88.25;55.10;;;20.00;73.70;;;;;;5003933;27;85019;-72
2023/07/23 08:31:03;;;;;;;88.07;55.03;;;20.00;74.20;;;;;;5023440;27;87224;-75
2023/07/23 08:33:31;;;;;;;90.13;55.08;;;20.00;73.90;;;;;;4997790;27;86318;-74
2023/07/23 08:35:58;;;;;;;89.72;55.22;;;20.00;73.70;;;;;;5014408;27;85470;-74
2023/07/23 08:38:25;;;;;;;90.05;55.78;;;20.00;74.30;;;;;;4995411;27;86142;-73
2023/07/23 08:41:02;;;;;;;89.57;55.55;;;20.00;76.30;;;;;;5004456;27;88102;-73
2023/07/23 08:43:49;;;;;;;90.07;55.35;;;20.20;77.20;;;;;;4994658;27;86092;-73
2023/07/23 08:46:24;;;;;;;92.32;55.85;;;20.30;76.50;;;;;;4999931;27;89513;-73
2023/07/23 08:49:01;;;;;;;88.57;55.70;;;20.50;76.20;;;;;;5006714;27;87875;-74
2023/07/23 08:51:35;;;;;;;90.82;55.85;;;20.50;75.70;;;;;;5003049;27;86208;-71
2023/07/23 08:54:02;;;;;;;89.22;55.60;;;20.60;75.70;;;;;;4998067;27;85490;-72
2023/07/23 08:56:27;;;;;;;91.57;56.05;;;20.60;75.20;;;;;;5004272;27;85198;-74
2023/07/23 08:58:53;;;;;;;89.60;55.53;;;20.70;76.30;;;;;;5004895;27;89314;-71
2023/07/23 09:01:19;;;;;;;89.43;55.13;;;20.70;76.00;;;;;;5001745;27;85413;-70
2023/07/23 09:03:45;;;;;;;88.60;55.47;;;20.70;76.00;;;;;;4991744;28;89896;-72
2023/07/23 09:06:11;;;;;;;90.30;55.83;;;20.70;74.90;;;;;;4991432;28;87240;-70
2023/07/23 09:08:37;;;;;;;91.68;55.72;;;20.80;74.50;;;;;;5003626;27;87937;-72
2023/07/23 09:11:06;;;;;;;91.70;55.90;;;20.90;74.10;;;;;;5001239;27;85412;-72
2023/07/23 09:13:36;;;;;;;90.35;56.08;;;21.10;72.70;;;;;;5003792;27;86324;-73
2023/07/23 09:16:04;;;;;;;90.68;55.58;;;21.20;73.40;;;;;;5000223;27;86430;-72
2023/07/23 09:18:30;;;;;;;90.20;55.60;;;21.30;72.20;;;;;;5002626;27;87127;-72
2023/07/23 09:20:57;;;;;;;91.75;56.10;;;21.40;73.30;;;;;;5001388;27;90064;-73
2023/07/23 09:23:26;;;;;;;90.82;56.10;;;21.50;72.60;;;;;;4984584;28;88115;-72
2023/07/23 09:25:52;;;;;;;92.13;55.95;;;21.70;72.10;;;;;;4996863;27;86131;-72
2023/07/23 09:28:25;;;;;;;91.35;55.67;;;21.80;71.70;;;;;;5001334;27;88791;-73
2023/07/23 09:30:54;;;;;;;91.63;56.03;;;21.70;72.10;;;;;;5001892;27;85116;-71
2023/07/23 09:33:20;;;;;;;91.40;55.88;;;21.70;72.40;;;;;;5001217;27;86023;-73
2023/07/23 09:35:46;;;;;;;92.30;56.33;;;21.90;70.30;;;;;;5002791;27;86567;-70
2023/07/23 09:38:15;;;;;;;90.53;55.80;;;22.00;70.60;;;;;;4999133;27;88652;-71
2023/07/23 09:40:41;;;;;;;90.43;56.17;;;22.10;71.70;;;;;;5003134;27;86269;-73
2023/07/23 09:43:08;;;;;;;91.47;55.92;;;22.10;69.80;;;;;;4991839;28;87761;-71
2023/07/23 09:45:38;;;;;;;91.38;55.70;;;22.10;71.10;;;;;;4989902;28;85259;-73
2023/07/23 09:48:05;;;;;;;90.72;55.85;;;22.00;71.20;;;;;;5006015;27;87195;-73
2023/07/23 09:50:31;;;;;;;91.45;56.08;;;22.10;71.10;;;;;;5003357;27;86460;-73
2023/07/23 09:52:57;;;;;;;91.82;56.00;;;22.20;70.80;;;;;;5002962;27;86515;-72
2023/07/23 09:55:23;;;;;;;90.60;55.67;;;22.30;70.30;;;;;;4997978;27;90742;-73
2023/07/23 09:57:53;;;;;;;92.38;56.13;;;22.40;69.90;;;;;;5002394;27;87658;-74
2023/07/23 10:00:19;;;;;;;89.97;55.97;;;22.40;71.60;;;;;;5002143;27;85624;-73
2023/07/23 10:02:48;;;;;;;91.45;55.92;;;22.40;70.30;;;;;;5001543;27;89658;-72
2023/07/23 10:05:15;;;;;;;91.90;55.63;;;22.40;70.30;;;;;;5000239;27;87364;-72
2023/07/23 10:07:42;;;;;;;90.55;55.85;;;22.50;70.50;;;;;;5001686;27;87207;-73
2023/07/23 10:10:08;;;;;;;97.35;58.25;;;22.40;70.80;;;;;;5000558;27;88323;-73
2023/07/23 10:12:34;;;;;;;92.65;57.10;;;22.50;69.80;;;;;;5005023;27;85908;-73
2023/07/23 10:15:01;;;;;;;90.90;55.75;;;22.50;69.90;;;;;;4997782;27;87060;-72
2023/07/23 10:17:28;;;;;;;93.07;56.47;;;22.40;70.50;;;;;;4999148;27;87301;-72
2023/07/23 10:19:56;;;;;;;96.90;57.60;;;22.50;70.10;;;;;;4985840;27;88338;-73
2023/07/23 10:22:31;;;;;;;93.88;56.25;;;22.50;70.80;;;;;;5005451;27;87401;-73
2023/07/23 10:24:56;;;;;;;92.50;56.33;;;22.50;70.80;;;;;;5001021;27;87425;-73
2023/07/23 10:27:23;;;;;;;94.18;56.40;;;22.50;70.30;;;;;;4999520;27;85462;-74
2023/07/23 10:30:14;;;;;;;97.47;56.17;;;22.50;71.10;;;;;;5001651;27;88067;-73
2023/07/23 10:32:40;;;;;;;92.05;55.83;;;22.60;70.90;;;;;;4999458;27;86070;-74
2023/07/23 10:35:05;;;;;;;92.43;56.05;;;22.70;70.80;;;;;;5003996;27;87122;-74
2023/07/23 10:37:31;;;;;;;92.07;55.80;;;22.80;70.10;;;;;;5001450;27;85293;-75
2023/07/23 10:39:59;;;;;;;92.90;56.33;;;22.80;69.90;;;;;;4999151;27;88164;-73
2023/07/23 10:42:28;;;;;;;93.20;56.15;;;22.90;69.60;;;;;;4988709;27;87229;-73
2023/07/23 10:45:16;;;;;;;90.60;55.88;;;22.90;69.70;;;;;;5002177;27;86475;-74
2023/07/23 10:47:58;;;;;;;90.90;55.88;;;22.80;70.20;;;;;;4971841;27;87019;-72
2023/07/23 10:50:27;;;;;;;92.07;56.08;;;22.70;70.50;;;;;;5001795;27;86605;-74
2023/07/23 10:53:03;;;;;;;91.13;56.20;;;22.70;70.20;;;;;;5002417;27;89775;-73
2023/07/23 10:55:50;;;;;;;94.00;55.92;;;22.80;70.60;;;;;;4999660;27;86802;-73
2023/07/23 10:58:20;;;;;;;91.65;55.88;;;22.80;70.60;;;;;;4988427;27;88445;-72
2023/07/23 11:00:51;;;;;;;101.47;58.27;;;22.80;70.80;;;;;;5001087;27;88760;-71
2023/07/23 11:03:19;;;;;;;101.55;57.55;;;22.80;70.70;;;;;;4996720;27;85972;-74
2023/07/23 11:05:45;;;;;;;95.85;56.92;;;22.80;70.90;;;;;;4988488;28;86219;-72
2023/07/23 11:08:17;;;;;;;98.28;56.85;;;22.90;70.90;;;;;;5008257;28;86626;-73
2023/07/23 11:10:53;;;;;;;95.90;57.55;;;22.90;70.70;;;;;;5006849;27;87681;-73
2023/07/23 11:13:20;;;;;;;100.93;57.20;;;22.90;70.90;;;;;;5003264;27;85402;-73
2023/07/23 11:15:47;;;;;;;94.13;56.75;;;23.00;70.80;;;;;;4999679;27;85825;-75
2023/07/23 11:18:13;;;;;;;92.57;57.00;;;23.00;70.70;;;;;;5003344;27;86094;-72
2023/07/23 11:20:50;;;;;;;94.40;56.45;;;23.00;70.90;;;;;;5001032;27;87136;-72
2023/07/23 11:23:20;;;;;;;95.25;56.95;;;23.00;71.00;;;;;;5007063;27;86474;-73
2023/07/23 11:25:47;;;;;;;92.35;56.40;;;23.00;72.30;;;;;;5004671;27;86054;-74
2023/07/23 11:28:15;;;;;;;94.60;56.92;;;23.00;71.30;;;;;;5002130;27;86432;-74
2023/07/23 11:30:42;;;;;;;93.72;56.83;;;23.10;71.70;;;;;;5001365;27;85740;-76
2023/07/23 11:33:08;;;;;;;93.45;56.85;;;23.30;70.90;;;;;;5002017;28;85067;-73
2023/07/23 11:35:34;;;;;;;93.18;56.67;;;23.40;69.80;;;;;;5006687;28;89138;-74
2023/07/23 11:38:04;;;;;;;94.00;56.75;;;23.50;69.90;;;;;;4990318;27;86384;-74
2023/07/23 11:40:30;;;;;;;93.85;56.50;;;23.40;69.50;;;;;;5004954;27;86039;-75
2023/07/23 11:42:56;;;;;;;93.57;56.78;;;23.40;69.80;;;;;;5001314;27;87905;-75
2023/07/23 11:45:22;;;;;;;95.03;56.53;;;23.40;69.80;;;;;;4990982;28;88459;-74
2023/07/23 11:47:54;;;;;;;95.03;56.53;;;23.40;69.70;;;;;;5009781;27;85083;-74
2023/07/23 11:50:21;;;;;;;92.43;56.25;;;23.30;69.90;;;;;;5012777;27;86077;-74
2023/07/23 11:52:48;;;;;;;91.38;56.15;;;23.30;69.90;;;;;;5006544;27;85302;-74
2023/07/23 11:55:26;;;;;;;91.32;56.25;;;23.30;69.80;;;;;;5006157;27;89267;-72
2023/07/23 11:57:59;;;;;;;90.10;55.90;;;23.30;69.10;;;;;;4991183;28;85630;-72
2023/07/23 12:00:37;;;;;;;94.13;56.15;;;23.40;69.50;;;;;;5000400;27;90102;-73
2023/07/23 12:03:07;;;;;;;90.47;56.15;;;23.50;69.10;;;;;;4988213;27;91440;-74
2023/07/23 12:05:32;;;;;;;90.47;55.80;;;23.50;69.00;;;;;;5004644;27;91680;-73
2023/07/23 12:07:58;;;;;;;91.75;56.15;;;23.40;69.40;;;;;;5001261;27;90576;-71
2023/07/23 12:10:27;;;;;;;90.65;56.47;;;23.40;69.30;;;;;;4998603;27;93449;-71
2023/07/23 12:12:53;;;;;;;93.38;56.20;;;23.50;69.20;;;;;;5001659;27;90973;-75
2023/07/23 12:15:18;;;;;;;93.13;56.58;;;23.50;68.80;;;;;;4999028;27;89668;-74
2023/07/23 12:17:45;;;;;;;90.95;56.28;;;23.50;69.00;;;;;;5005606;27;89379;-73
2023/07/23 12:20:18;;;;;;;91.07;56.53;;;23.70;68.50;;;;;;5003885;27;90104;-74
2023/07/23 12:22:57;;;;;;;91.50;56.42;;;23.70;68.90;;;;;;5002271;27;89830;-74
2023/07/23 12:25:24;;;;;;;92.07;56.65;;;23.80;68.90;;;;;;4999626;27;94528;-71